createdAt,value
2022-12-13T00:01:28.254Z,78.10
2022-12-13T00:03:57.332Z,78.62
2022-12-13T00:06:25.462Z,82.60
2022-12-13T00:08:53.722Z,82.49
2022-12-13T00:11:21.494Z,84.18
2022-12-13T00:13:49.411Z,79.82
2022-12-13T00:16:19.360Z,81.27
2022-12-13T00:18:47.970Z,80.35
2022-12-13T00:21:18.043Z,81.36
2022-12-13T00:23:46.238Z,81.83
2022-12-13T00:26:22.973Z,82.49
2022-12-13T00:28:51.341Z,82.04
2022-12-13T00:31:53.437Z,81.94
2022-12-13T00:34:07.702Z,83.05
2022-12-13T00:36:35.363Z,85.07
2022-12-13T00:39:02.792Z,82.81
2022-12-13T00:41:35.662Z,84.64
2022-12-13T00:44:04.239Z,83.20
2022-12-13T00:46:32.379Z,82.01
2022-12-13T00:49:01.118Z,80.94
2022-12-13T00:51:29.943Z,79.63
2022-12-13T00:53:57.576Z,80.90
2022-12-13T00:56:26.721Z,79.33
2022-12-13T00:58:54.753Z,77.99
2022-12-13T01:01:25.051Z,81.10
2022-12-13T01:03:58.216Z,83.72
2022-12-13T01:06:30.042Z,85.79
2022-12-13T01:08:57.499Z,84.29
2022-12-13T01:11:25.755Z,83.63
2022-12-13T01:13:53.394Z,84.45
2022-12-13T01:16:21.604Z,79.50
2022-12-13T01:18:49.103Z,86.05
2022-12-13T01:21:18.718Z,85.47
2022-12-13T01:23:46.270Z,80.10
2022-12-13T01:26:16.108Z,81.71
2022-12-13T01:28:44.223Z,82.67
2022-12-13T01:31:14.188Z,82.94
2022-12-13T01:33:42.432Z,85.02
2022-12-13T01:36:13.626Z,85.19
2022-12-13T01:38:41.036Z,78.32
2022-12-13T01:41:17.724Z,82.06
2022-12-13T01:43:53.140Z,80.43
2022-12-13T01:46:20.802Z,77.49
2022-12-13T01:49:19.801Z,73.67
2022-12-13T01:51:54.925Z,73.60
2022-12-13T01:54:33.460Z,74.11
2022-12-13T01:57:04.488Z,75.20
2022-12-13T01:59:33.883Z,75.63
2022-12-13T02:02:01.631Z,77.63
2022-12-13T02:04:34.006Z,75.32
2022-12-13T02:07:01.837Z,73.79
2022-12-13T02:09:29.557Z,73.88
2022-12-13T02:11:56.917Z,78.54
2022-12-13T02:14:24.263Z,78.28
2022-12-13T02:17:09.430Z,76.69
2022-12-13T02:20:01.514Z,80.41
2022-12-13T02:23:05.359Z,81.48
2022-12-13T02:26:03.786Z,83.05
2022-12-13T02:28:43.366Z,82.32
2022-12-13T02:31:15.116Z,77.48
2022-12-13T02:33:53.375Z,79.91
2022-12-13T02:36:35.923Z,79.39
2022-12-13T02:39:10.894Z,78.39
2022-12-13T02:41:47.988Z,79.09
2022-12-13T02:44:30.833Z,79.10
2022-12-13T02:47:03.152Z,79.87
2022-12-13T02:49:33.422Z,79.53
2022-12-13T02:52:02.498Z,79.61
2022-12-13T02:54:30.576Z,81.81
2022-12-13T02:56:59.734Z,82.71
2022-12-13T02:59:38.778Z,83.23
2022-12-13T03:02:31.756Z,84.45
2022-12-13T03:05:34.513Z,85.75
2022-12-13T03:08:20.176Z,86.02
2022-12-13T03:11:04.715Z,86.25
2022-12-13T03:13:51.174Z,88.27
2022-12-13T03:16:26.141Z,88.73
2022-12-13T03:18:57.935Z,88.62
2022-12-13T03:21:25.813Z,87.98
2022-12-13T03:23:53.343Z,87.08
2022-12-13T03:26:24.305Z,85.69
2022-12-13T03:28:52.494Z,85.35
2022-12-13T03:31:20.276Z,84.67
2022-12-13T03:33:48.011Z,84.61
2022-12-13T03:36:16.650Z,83.85
2022-12-13T03:38:44.946Z,83.68
2022-12-13T03:41:16.889Z,82.11
2022-12-13T03:43:44.749Z,82.71
2022-12-13T03:46:12.652Z,82.92
2022-12-13T03:48:40.445Z,83.85
2022-12-13T03:51:07.802Z,83.59
2022-12-13T03:53:35.216Z,83.56
2022-12-13T03:56:05.185Z,83.25
2022-12-13T03:58:36.451Z,83.76
2022-12-13T04:01:06.910Z,85.47
2022-12-13T04:03:35.377Z,87.11
2022-12-13T04:06:03.880Z,86.74
2022-12-13T04:08:31.279Z,86.04
2022-12-13T04:10:58.985Z,87.19
2022-12-13T04:13:35.206Z,85.02
2022-12-13T04:16:03.258Z,85.01
2022-12-13T04:18:30.837Z,85.58
2022-12-13T04:20:58.279Z,84.88
2022-12-13T04:23:25.926Z,84.57
2022-12-13T04:25:53.301Z,83.53
2022-12-13T04:28:22.450Z,83.78
2022-12-13T04:30:53.430Z,83.23
2022-12-13T04:33:22.702Z,84.60
2022-12-13T04:35:50.583Z,85.23
2022-12-13T04:38:17.939Z,86.31
2022-12-13T04:40:45.500Z,85.95
2022-12-13T04:43:13.146Z,85.86
2022-12-13T04:45:40.726Z,86.19
2022-12-13T04:48:08.515Z,84.69
2022-12-13T04:50:36.918Z,84.79
2022-12-13T04:53:04.316Z,82.00
2022-12-13T04:55:31.699Z,79.27
2022-12-13T04:57:59.363Z,76.67
2022-12-13T05:00:26.791Z,72.80
2022-12-13T05:02:54.276Z,70.88
2022-12-13T05:05:22.519Z,69.10
2022-12-13T05:07:49.953Z,68.43
2022-12-13T05:10:32.123Z,73.98
2022-12-13T05:13:04.188Z,76.49
2022-12-13T05:15:31.664Z,78.90
2022-12-13T05:18:10.273Z,79.80
2022-12-13T05:20:39.853Z,79.02
2022-12-13T05:23:07.332Z,82.25
2022-12-13T05:25:37.066Z,84.05
2022-12-13T05:28:09.107Z,84.04
2022-12-13T05:30:56.101Z,84.12
2022-12-13T05:33:24.557Z,84.04
2022-12-13T05:35:56.324Z,83.14
2022-12-13T05:38:27.009Z,83.78
2022-12-13T05:40:54.459Z,85.40
2022-12-13T05:43:22.206Z,86.74
2022-12-13T05:45:50.891Z,87.81
2022-12-13T05:48:24.942Z,87.39
2022-12-13T05:51:10.858Z,85.35
2022-12-13T05:53:42.313Z,84.06
2022-12-13T05:56:10.974Z,82.13
2022-12-13T05:58:39.722Z,75.14
2022-12-13T06:01:08.748Z,72.12
2022-12-13T06:03:36.736Z,73.10
2022-12-13T06:06:05.006Z,78.28
2022-12-13T06:08:32.987Z,79.19
2022-12-13T06:11:11.759Z,79.35
2022-12-13T06:13:43.744Z,77.72
2022-12-13T06:16:22.965Z,74.64
2022-12-13T06:18:59.453Z,72.11
2022-12-13T06:21:40.676Z,70.54
2022-12-13T06:24:11.205Z,69.29
2022-12-13T06:26:38.864Z,69.16
2022-12-13T06:29:06.236Z,69.42
2022-12-13T06:31:33.732Z,70.63
2022-12-13T06:34:14.556Z,70.86
2022-12-13T06:36:43.144Z,72.06
2022-12-13T06:39:10.821Z,71.83
2022-12-13T06:41:38.367Z,74.36
2022-12-13T06:44:05.736Z,76.09
2022-12-13T06:46:33.786Z,77.92
2022-12-13T06:49:01.549Z,77.05
2022-12-13T06:51:33.133Z,74.22
2022-12-13T06:54:04.885Z,72.67
2022-12-13T06:56:32.786Z,74.26
2022-12-13T06:59:01.714Z,75.18
2022-12-13T07:01:36.804Z,75.65
2022-12-13T07:04:29.943Z,76.77
2022-12-13T07:07:01.226Z,74.62
2022-12-13T07:09:32.701Z,74.99
2022-12-13T07:12:00.439Z,76.94
2022-12-13T07:14:27.925Z,75.12
2022-12-13T07:17:02.882Z,70.96
2022-12-13T07:19:35.185Z,69.56
2022-12-13T07:22:05.978Z,69.61
2022-12-13T07:24:36.831Z,68.29
2022-12-13T07:27:04.622Z,67.04
2022-12-13T07:29:31.969Z,66.40
2022-12-13T07:32:01.668Z,65.63
2022-12-13T07:34:30.515Z,65.23
2022-12-13T07:36:58.201Z,64.52
2022-12-13T07:39:26.302Z,63.98
2022-12-13T07:41:55.622Z,64.49
2022-12-13T07:44:24.183Z,63.41
2022-12-13T07:46:52.396Z,64.56
2022-12-13T07:49:19.924Z,65.21
2022-12-13T07:51:48.056Z,64.78
2022-12-13T07:54:15.806Z,64.76
2022-12-13T07:56:43.288Z,64.37
2022-12-13T07:59:11.070Z,65.02
2022-12-13T08:01:38.936Z,65.85
2022-12-13T08:04:06.810Z,66.37
2022-12-13T08:06:37.990Z,66.48
2022-12-13T08:09:06.069Z,68.20
2022-12-13T08:11:34.562Z,70.59
2022-12-13T08:14:01.952Z,69.77
2022-12-13T08:16:30.513Z,67.96
2022-12-13T08:19:02.913Z,67.90
2022-12-13T08:24:25.291Z,68.65
2022-12-13T08:26:56.930Z,68.06
2022-12-13T08:29:34.006Z,72.26
2022-12-13T08:32:09.169Z,76.43
2022-12-13T08:34:37.209Z,70.79
2022-12-13T08:37:05.287Z,69.24
2022-12-13T08:39:37.206Z,68.75
2022-12-13T08:42:18.904Z,68.00
2022-12-13T08:44:51.573Z,65.89
2022-12-13T08:47:22.915Z,65.34
2022-12-13T08:50:01.527Z,66.66
2022-12-13T08:52:40.136Z,66.89
2022-12-13T08:55:10.730Z,67.26
2022-12-13T08:57:39.555Z,66.38
2022-12-13T09:00:08.354Z,64.61
2022-12-13T09:02:38.118Z,63.39
2022-12-13T09:05:07.989Z,63.85
2022-12-13T09:07:36.343Z,64.99
2022-12-13T09:10:25.983Z,66.56
2022-12-13T09:13:01.717Z,71.13
2022-12-13T09:15:34.097Z,70.27
2022-12-13T09:18:04.971Z,69.31
2022-12-13T09:20:40.914Z,73.61
2022-12-13T09:23:14.221Z,75.80
2022-12-13T09:25:56.041Z,75.95
2022-12-13T09:28:33.090Z,76.02
2022-12-13T09:31:00.631Z,75.43
2022-12-13T09:33:29.869Z,75.51
2022-12-13T09:36:01.260Z,75.70
2022-12-13T09:38:29.293Z,73.67
2022-12-13T09:40:59.522Z,72.73
2022-12-13T09:43:33.847Z,72.83
2022-12-13T09:46:34.235Z,70.77
2022-12-13T09:49:39.211Z,68.05
2022-12-13T09:52:11.628Z,64.62
2022-12-13T09:54:48.255Z,68.01
2022-12-13T09:57:32.095Z,65.08
2022-12-13T10:00:04.595Z,64.82
2022-12-13T10:02:44.472Z,62.45
2022-12-13T10:05:35.852Z,61.64
2022-12-13T10:08:07.444Z,61.49
2022-12-13T10:10:35.243Z,60.41
2022-12-13T10:13:14.392Z,61.78
2022-12-13T10:15:43.504Z,65.36
2022-12-13T10:18:13.342Z,64.04
2022-12-13T10:20:42.114Z,62.54
2022-12-13T10:26:03.056Z,59.68
2022-12-13T10:28:32.590Z,64.70
2022-12-13T10:31:00.809Z,61.23
2022-12-13T10:33:33.068Z,62.90
2022-12-13T10:36:16.228Z,64.48
2022-12-13T10:38:45.950Z,64.07
2022-12-13T10:41:30.622Z,64.71
2022-12-13T10:44:22.513Z,60.00
2022-12-13T10:47:11.802Z,62.63
2022-12-13T10:49:49.907Z,60.15
2022-12-13T10:52:30.826Z,61.17
2022-12-13T10:55:04.611Z,60.83
2022-12-13T10:57:57.438Z,58.35
2022-12-13T11:00:38.058Z,61.32
2022-12-13T11:03:06.916Z,61.01
2022-12-13T11:05:35.825Z,60.35
2022-12-13T11:08:32.862Z,60.63
2022-12-13T11:11:02.495Z,57.97
2022-12-13T11:13:44.150Z,56.90
2022-12-13T11:16:31.839Z,55.97
2022-12-13T11:19:20.321Z,57.41
2022-12-13T11:21:49.440Z,57.00
2022-12-13T11:24:33.364Z,57.47
2022-12-13T11:27:19.869Z,58.74
2022-12-13T11:30:37.824Z,59.14
2022-12-13T11:33:29.963Z,54.84
2022-12-13T11:36:08.628Z,56.96
2022-12-13T11:38:58.040Z,57.95
2022-12-13T11:41:32.424Z,57.90
2022-12-13T11:44:19.833Z,55.94
2022-12-13T11:46:51.914Z,54.12
2022-12-13T11:49:33.445Z,56.28
2022-12-13T11:52:06.010Z,55.12
2022-12-13T11:54:50.659Z,56.29
2022-12-13T11:57:49.539Z,57.87
2022-12-13T12:00:36.665Z,56.97
2022-12-13T12:03:19.666Z,55.07
2022-12-13T12:05:55.769Z,57.42
2022-12-13T12:08:35.286Z,56.48
2022-12-13T12:11:17.897Z,54.86
2022-12-13T12:14:11.816Z,53.19
2022-12-13T12:16:43.602Z,55.11
2022-12-13T12:19:14.151Z,53.82
2022-12-13T12:22:16.314Z,52.06
2022-12-13T12:25:02.595Z,51.89
2022-12-13T12:27:39.067Z,53.86
2022-12-13T12:30:31.824Z,51.74
2022-12-13T12:33:10.180Z,51.59
2022-12-13T12:35:59.716Z,52.31
2022-12-13T12:38:52.960Z,53.73
2022-12-13T12:41:45.676Z,51.56
2022-12-13T12:44:22.114Z,51.29
2022-12-13T12:50:28.615Z,50.33
2022-12-13T12:53:16.504Z,52.61
2022-12-13T12:55:56.097Z,50.10
2022-12-13T12:58:50.659Z,52.00
2022-12-13T13:01:53.835Z,51.17
2022-12-13T13:04:29.813Z,52.95
2022-12-13T13:07:01.768Z,51.08
2022-12-13T13:09:30.239Z,49.94
2022-12-13T13:11:57.873Z,51.80
2022-12-13T13:14:37.088Z,54.55
2022-12-13T13:17:17.081Z,53.34
2022-12-13T13:20:12.124Z,55.15
2022-12-13T13:22:44.121Z,54.59
2022-12-13T13:25:31.165Z,53.55
2022-12-13T13:28:05.385Z,53.22
2022-12-13T13:30:33.419Z,51.97
2022-12-13T13:33:01.117Z,51.12
2022-12-13T13:35:33.167Z,52.25
2022-12-13T13:38:27.935Z,50.56
2022-12-13T13:40:55.296Z,49.03
2022-12-13T13:43:32.512Z,48.76
2022-12-13T13:46:11.559Z,50.99
2022-12-13T13:49:03.888Z,52.53
2022-12-13T13:52:23.932Z,52.85
2022-12-13T13:54:56.106Z,52.82
2022-12-13T14:00:56.230Z,49.51
2022-12-13T14:04:08.080Z,48.30
2022-12-13T14:07:22.069Z,48.42
2022-12-13T14:09:58.955Z,47.63
2022-12-13T14:12:56.305Z,49.08
2022-12-13T14:15:57.893Z,48.92
2022-12-13T14:18:31.409Z,48.70
2022-12-13T14:21:08.403Z,49.00
2022-12-13T14:24:01.340Z,49.71
2022-12-13T14:26:38.237Z,51.92
2022-12-13T14:29:19.172Z,52.21
2022-12-13T14:31:48.251Z,53.06
2022-12-13T14:34:30.048Z,52.49
2022-12-13T14:37:03.191Z,51.27
2022-12-13T14:39:31.491Z,51.30
2022-12-13T14:42:00.169Z,52.59
2022-12-13T14:44:29.985Z,51.91
2022-12-13T14:47:02.675Z,52.19
2022-12-13T14:49:39.551Z,53.05
2022-12-13T14:52:08.768Z,54.29
2022-12-13T14:54:48.889Z,59.12
2022-12-13T14:57:19.124Z,60.16
2022-12-13T14:59:50.386Z,60.55
2022-12-13T15:02:30.942Z,61.15
2022-12-13T15:05:01.944Z,61.48
2022-12-13T15:07:33.754Z,62.41
2022-12-13T15:10:28.349Z,62.64
2022-12-13T15:12:55.949Z,63.59
2022-12-13T15:15:32.670Z,64.79
2022-12-13T15:18:23.003Z,66.06
2022-12-13T15:20:53.965Z,67.02
2022-12-13T15:23:30.713Z,66.92
2022-12-13T15:26:13.183Z,67.15
2022-12-13T15:28:59.042Z,67.10
2022-12-13T15:31:26.886Z,67.45
2022-12-13T15:34:01.093Z,67.22
2022-12-13T15:36:29.233Z,66.71
2022-12-13T15:38:56.878Z,64.79
2022-12-13T15:41:36.844Z,63.18
2022-12-13T15:44:08.061Z,61.76
2022-12-13T15:46:38.151Z,61.64
2022-12-13T15:49:07.988Z,61.49
2022-12-13T15:51:53.848Z,61.97
2022-12-13T15:54:23.915Z,61.61
2022-12-13T15:57:17.558Z,61.54
2022-12-13T15:59:45.955Z,61.42
2022-12-13T16:02:20.537Z,60.95
2022-12-13T16:04:49.059Z,61.14
2022-12-13T16:07:29.975Z,60.77
2022-12-13T16:09:57.856Z,61.00
2022-12-13T16:12:38.606Z,58.84
2022-12-13T16:15:28.953Z,58.65
2022-12-13T16:18:16.550Z,59.56
2022-12-13T16:20:46.408Z,60.26
2022-12-13T16:23:26.603Z,59.12
2022-12-13T16:25:56.512Z,59.62
2022-12-13T16:28:26.190Z,59.80
2022-12-13T16:30:53.849Z,61.18
2022-12-13T16:33:27.534Z,61.43
2022-12-13T16:35:56.014Z,60.79
2022-12-13T16:38:26.648Z,60.42
2022-12-13T16:40:56.300Z,61.47
2022-12-13T16:43:33.365Z,60.90
2022-12-13T16:47:14.342Z,62.42
2022-12-13T16:48:51.999Z,65.18
2022-12-13T16:51:20.588Z,67.28
2022-12-13T16:53:48.496Z,69.65
2022-12-13T16:56:21.883Z,71.04
2022-12-13T16:58:50.665Z,69.69
2022-12-13T17:01:20.436Z,67.30
2022-12-13T17:03:49.123Z,66.51
2022-12-13T17:06:22.959Z,66.01
2022-12-13T17:08:51.735Z,70.40
2022-12-13T17:11:19.417Z,70.62
2022-12-13T17:13:48.223Z,69.46
2022-12-13T17:16:16.836Z,69.18
2022-12-13T17:18:45.168Z,69.68
2022-12-13T17:21:13.989Z,70.49
2022-12-13T17:23:42.189Z,68.00
2022-12-13T17:26:12.002Z,66.25
2022-12-13T17:28:40.230Z,64.41
2022-12-13T17:31:13.962Z,64.31
2022-12-13T17:33:43.824Z,65.95
2022-12-13T17:36:14.810Z,67.33
2022-12-13T17:38:47.365Z,68.17
2022-12-13T17:41:16.119Z,69.01
2022-12-13T17:43:45.529Z,70.93
2022-12-13T17:46:18.153Z,71.58
2022-12-13T17:48:46.745Z,71.50
2022-12-13T17:51:14.658Z,71.40
2022-12-13T17:53:43.619Z,72.78
2022-12-13T17:56:15.078Z,73.90
2022-12-13T17:58:43.198Z,74.63
2022-12-13T18:01:20.592Z,74.92
2022-12-13T18:03:51.082Z,75.88
2022-12-13T18:06:18.922Z,76.86
2022-12-13T18:08:47.168Z,77.26
2022-12-13T18:11:33.037Z,76.48
2022-12-13T18:14:03.459Z,75.36
2022-12-13T18:16:37.328Z,75.39
2022-12-13T18:19:12.262Z,75.20
2022-12-13T18:21:41.467Z,74.43
2022-12-13T18:24:10.455Z,74.79
2022-12-13T18:26:39.144Z,75.42
2022-12-13T18:29:07.959Z,75.12
2022-12-13T18:31:36.295Z,74.99
2022-12-13T18:34:05.978Z,73.75
2022-12-13T18:36:35.871Z,74.38
2022-12-13T18:39:04.972Z,75.45
2022-12-13T18:41:36.899Z,76.75
2022-12-13T18:44:08.375Z,77.97
2022-12-13T18:46:40.438Z,77.15
2022-12-13T18:49:11.871Z,76.69
2022-12-13T18:51:40.425Z,75.21
2022-12-13T18:54:27.698Z,74.85
2022-12-13T18:56:58.017Z,75.00
2022-12-13T18:59:26.639Z,76.15
2022-12-13T19:01:55.708Z,76.11
2022-12-13T19:04:27.865Z,75.73
2022-12-13T19:06:57.640Z,75.01
2022-12-13T19:09:29.935Z,75.42
2022-12-13T19:11:58.800Z,75.10
2022-12-13T19:14:28.834Z,75.49
2022-12-13T19:16:57.893Z,76.48
2022-12-13T19:19:27.467Z,76.79
2022-12-13T19:21:56.700Z,76.52
2022-12-13T19:24:25.686Z,76.20
2022-12-13T19:26:55.007Z,75.98
2022-12-13T19:29:26.111Z,76.52
2022-12-13T19:31:54.903Z,77.45
2022-12-13T19:34:24.347Z,78.24
2022-12-13T19:36:54.513Z,77.66
2022-12-13T19:39:25.720Z,74.16
2022-12-13T19:41:55.451Z,72.27
2022-12-13T19:44:24.327Z,73.21
2022-12-13T19:46:54.227Z,74.24
2022-12-13T19:49:25.040Z,75.49
2022-12-13T19:51:53.667Z,76.33
2022-12-13T19:54:25.286Z,77.20
2022-12-13T19:57:07.008Z,77.42
2022-12-13T19:59:36.698Z,75.93
2022-12-13T20:02:08.188Z,75.97
2022-12-13T20:04:39.171Z,75.57
2022-12-13T20:07:07.868Z,78.20
2022-12-13T20:09:41.659Z,77.44
2022-12-13T20:12:10.351Z,77.07
2022-12-13T20:14:39.281Z,78.45
2022-12-13T20:17:08.777Z,77.33
2022-12-13T20:19:37.598Z,79.22
2022-12-13T20:22:07.140Z,78.76
2022-12-13T20:24:35.595Z,78.90
2022-12-13T20:27:07.315Z,79.20
2022-12-13T20:29:37.390Z,78.33
2022-12-13T20:32:06.397Z,78.11
2022-12-13T20:34:35.127Z,77.74
2022-12-13T20:37:04.983Z,77.87
2022-12-13T20:39:35.235Z,77.96
2022-12-13T20:42:04.576Z,71.84
2022-12-13T20:44:34.911Z,69.96
2022-12-13T20:47:07.355Z,68.66
2022-12-13T20:49:36.281Z,71.75
2022-12-13T20:52:07.710Z,73.13
2022-12-13T20:54:36.791Z,76.81
2022-12-13T20:57:05.793Z,78.82
2022-12-13T20:59:34.596Z,79.81
2022-12-13T21:02:02.582Z,79.92
2022-12-13T21:04:33.785Z,80.02
2022-12-13T21:07:02.836Z,81.00
2022-12-13T21:09:30.997Z,81.68
2022-12-13T21:11:59.787Z,81.82
2022-12-13T21:14:34.317Z,80.83
2022-12-13T21:17:04.869Z,78.44
2022-12-13T21:19:39.115Z,77.82
2022-12-13T21:22:07.979Z,79.08
2022-12-13T21:24:36.221Z,77.83
2022-12-13T21:27:04.602Z,77.34
2022-12-13T21:29:32.544Z,78.42
2022-12-13T21:32:00.384Z,79.74
2022-12-13T21:34:27.989Z,77.57
2022-12-13T21:36:55.932Z,77.03
2022-12-13T21:39:28.504Z,73.99
2022-12-13T21:41:57.103Z,71.66
2022-12-13T21:44:24.585Z,71.27
2022-12-13T21:49:39.686Z,69.17
2022-12-13T21:52:07.065Z,68.15
2022-12-13T21:54:34.427Z,68.07
2022-12-13T21:57:20.635Z,68.49
2022-12-13T21:59:47.998Z,67.72
2022-12-13T22:02:19.960Z,67.03
2022-12-13T22:04:56.018Z,69.31
2022-12-13T22:07:24.397Z,70.88
2022-12-13T22:09:53.333Z,70.15
2022-12-13T22:12:31.003Z,67.92
2022-12-13T22:14:58.754Z,66.09
2022-12-13T22:17:33.043Z,65.74
2022-12-13T22:20:05.165Z,66.10
2022-12-13T22:22:32.639Z,66.40
2022-12-13T22:25:00.118Z,69.62
2022-12-13T22:27:27.897Z,68.94
2022-12-13T22:29:57.230Z,69.81
2022-12-13T22:32:27.092Z,68.98
2022-12-13T22:34:55.241Z,68.09
2022-12-13T22:37:22.786Z,67.59
2022-12-13T22:39:50.162Z,68.02
2022-12-13T22:42:19.785Z,68.59
2022-12-13T22:44:47.658Z,67.11
2022-12-13T22:47:15.082Z,65.63
2022-12-13T22:49:42.734Z,65.40
2022-12-13T22:52:10.184Z,66.21
2022-12-13T22:54:37.611Z,67.90
2022-12-13T22:57:07.428Z,69.26
2022-12-13T22:59:34.835Z,69.52
2022-12-13T23:02:03.792Z,71.28
2022-12-13T23:04:33.098Z,69.90
2022-12-13T23:07:00.756Z,70.17
2022-12-13T23:09:28.126Z,69.13
2022-12-13T23:12:14.459Z,68.04
2022-12-13T23:14:41.864Z,67.83
2022-12-13T23:17:09.609Z,67.94
2022-12-13T23:19:49.559Z,66.42
2022-12-13T23:22:23.406Z,65.90
2022-12-13T23:24:51.762Z,65.46
2022-12-13T23:27:21.355Z,64.99
2022-12-13T23:29:49.209Z,64.45
2022-12-13T23:32:16.682Z,64.07
2022-12-13T23:34:44.317Z,63.82
2022-12-13T23:37:11.714Z,63.56
2022-12-13T23:39:39.108Z,63.80
2022-12-13T23:42:07.301Z,63.22
2022-12-13T23:44:34.786Z,63.90
2022-12-13T23:47:02.135Z,65.15
2022-12-13T23:49:29.806Z,68.60
2022-12-13T23:51:57.197Z,68.66
2022-12-13T23:54:24.542Z,68.76
2022-12-13T23:56:52.220Z,69.95
2022-12-13T23:59:19.556Z,67.18
